createdAt,value
2023-01-01T00:01:31.956Z,95549.75
2023-01-01T00:04:01.048Z,95556.28
2023-01-01T00:06:28.531Z,95547.13
2023-01-01T00:09:09.916Z,95541.91
2023-01-01T00:11:37.437Z,95538.03
2023-01-01T00:14:11.759Z,95536.19
2023-01-01T00:16:40.097Z,95540.09
2023-01-01T00:19:09.264Z,95547.66
2023-01-01T00:21:38.822Z,95541.91
2023-01-01T00:24:07.584Z,95563.06
2023-01-01T00:26:35.788Z,95546.38
2023-01-01T00:29:04.366Z,95552.13
2023-01-01T00:31:32.488Z,95562.28
2023-01-01T00:34:00.187Z,95520.78
2023-01-01T00:36:30.562Z,95547.41
2023-01-01T00:38:58.149Z,95560.72
2023-01-01T00:41:25.976Z,95547.91
2023-01-01T00:43:53.425Z,95531.75
2023-01-01T00:46:20.917Z,95520.53
2023-01-01T00:48:48.468Z,95503.78
2023-01-01T00:51:15.921Z,95534.09
2023-01-01T00:53:44.686Z,95536.69
2023-01-01T00:56:12.162Z,95530.44
2023-01-01T00:58:39.684Z,95550.56
2023-01-01T01:01:07.371Z,95548.47
2023-01-01T01:03:35.040Z,95546.63
2023-01-01T01:06:10.431Z,95548.19
2023-01-01T01:08:40.063Z,95526.78
2023-01-01T01:11:10.689Z,95546.09
2023-01-01T01:13:38.851Z,95562.53
2023-01-01T01:16:10.183Z,95554.69
2023-01-01T01:18:37.977Z,95561.75
2023-01-01T01:21:06.010Z,95562.28
2023-01-01T01:23:34.358Z,95565.13
2023-01-01T01:26:11.245Z,95553.41
2023-01-01T01:28:43.813Z,95581.34
2023-01-01T01:31:15.157Z,95587.63
2023-01-01T01:33:44.825Z,95591.00
2023-01-01T01:36:13.409Z,95595.69
2023-01-01T01:38:41.440Z,95598.81
2023-01-01T01:41:26.258Z,95583.69
2023-01-01T01:43:58.170Z,95573.25
2023-01-01T01:46:31.869Z,95600.66
2023-01-01T01:49:03.444Z,95595.97
2023-01-01T01:51:35.445Z,95595.69
2023-01-01T01:54:07.797Z,95608.47
2023-01-01T01:56:43.911Z,95608.75
2023-01-01T01:59:11.636Z,95612.94
2023-01-01T02:01:39.226Z,95617.63
2023-01-01T02:04:07.245Z,95611.59
2023-01-01T02:06:36.226Z,95621.81
2023-01-01T02:09:06.105Z,95603.78
2023-01-01T02:11:33.675Z,95626.50
2023-01-01T02:14:04.174Z,95624.13
2023-01-01T02:16:38.537Z,95606.94
2023-01-01T02:19:13.071Z,95622.59
2023-01-01T02:21:50.203Z,95618.94
2023-01-01T02:24:33.409Z,95609.00
2023-01-01T02:27:04.983Z,95623.88
2023-01-01T02:29:46.176Z,95614.25
2023-01-01T02:32:18.830Z,95606.13
2023-01-01T02:34:52.294Z,95614.75
2023-01-01T02:37:21.442Z,95603.78
2023-01-01T02:39:54.625Z,95612.38
2023-01-01T02:42:25.379Z,95617.38
2023-01-01T02:44:56.497Z,95629.34
2023-01-01T02:47:23.999Z,95574.72
2023-01-01T02:49:58.069Z,95615.00
2023-01-01T02:52:43.535Z,95618.94
2023-01-01T02:55:22.378Z,95600.09
2023-01-01T02:57:56.794Z,95624.41
2023-01-01T03:00:28.170Z,95638.25
2023-01-01T03:03:12.597Z,95635.66
2023-01-01T03:05:58.165Z,95642.16
2023-01-01T03:08:31.623Z,95636.94
2023-01-01T03:11:05.576Z,95622.03
2023-01-01T03:13:39.959Z,95608.16
2023-01-01T03:16:13.132Z,95629.38
2023-01-01T03:18:47.265Z,95641.34
2023-01-01T03:23:50.585Z,95643.19
2023-01-01T03:26:21.814Z,95645.28
2023-01-01T03:28:52.532Z,95608.66
2023-01-01T03:31:26.296Z,95642.09
2023-01-01T03:34:02.129Z,95642.88
2023-01-01T03:36:35.262Z,95640.28
2023-01-01T03:39:07.107Z,95637.38
2023-01-01T03:41:40.622Z,95654.09
2023-01-01T03:44:11.774Z,95651.75
2023-01-01T03:46:40.718Z,95667.66
2023-01-01T03:49:11.389Z,95648.63
2023-01-01T03:52:01.461Z,95661.38
2023-01-01T03:54:38.410Z,95655.88
2023-01-01T03:57:13.395Z,95661.63
2023-01-01T03:59:48.651Z,95655.63
2023-01-01T04:02:21.210Z,95654.03
2023-01-01T04:04:50.338Z,95647.75
2023-01-01T04:07:18.234Z,95650.09
2023-01-01T04:09:50.478Z,95647.78
2023-01-01T04:12:19.583Z,95651.19
2023-01-01T04:14:47.100Z,95649.31
2023-01-01T04:17:14.838Z,95654.00
2023-01-01T04:19:43.606Z,95652.22
2023-01-01T04:22:11.176Z,95642.00
2023-01-01T04:24:38.679Z,95655.31
2023-01-01T04:27:06.132Z,95667.06
2023-01-01T04:29:33.820Z,95661.03
2023-01-01T04:32:01.266Z,95664.94
2023-01-01T04:34:28.681Z,95668.06
2023-01-01T04:36:57.482Z,95669.13
2023-01-01T04:39:24.939Z,95676.69
2023-01-01T04:41:52.457Z,95669.59
2023-01-01T04:44:19.953Z,95677.16
2023-01-01T04:46:47.404Z,95667.78
2023-01-01T04:49:14.844Z,95670.44
2023-01-01T04:51:42.294Z,95675.44
2023-01-01T04:54:11.051Z,95680.66
2023-01-01T04:56:38.515Z,95667.88
2023-01-01T04:59:05.991Z,95664.22
2023-01-01T05:01:33.978Z,95654.00
2023-01-01T05:04:02.122Z,95654.31
2023-01-01T05:06:30.068Z,95663.19
2023-01-01T05:08:58.174Z,95654.81
2023-01-01T05:11:28.594Z,95654.84
2023-01-01T05:13:58.188Z,95659.28
2023-01-01T05:16:27.979Z,95665.81
2023-01-01T05:18:55.475Z,95665.31
2023-01-01T05:21:24.524Z,95687.47
2023-01-01T05:23:55.606Z,95686.97
2023-01-01T05:26:27.050Z,95696.34
2023-01-01T05:28:56.552Z,95703.13
2023-01-01T05:31:26.463Z,95685.91
2023-01-01T05:33:54.648Z,95689.03
2023-01-01T05:36:24.476Z,95673.66
2023-01-01T05:38:52.936Z,95686.72
2023-01-01T05:41:21.917Z,95695.06
2023-01-01T05:43:50.276Z,95717.00
2023-01-01T05:46:20.674Z,95706.81
2023-01-01T05:48:48.949Z,95724.38
2023-01-01T05:51:18.561Z,95710.22
2023-01-01T05:53:46.264Z,95731.16
2023-01-01T05:56:14.713Z,95735.59
2023-01-01T05:58:42.681Z,95730.88
2023-01-01T06:01:12.978Z,95744.75
2023-01-01T06:03:42.609Z,95745.28
2023-01-01T06:06:12.189Z,95744.75
2023-01-01T06:08:40.058Z,95756.25
2023-01-01T06:11:09.452Z,95764.09
2023-01-01T06:13:36.887Z,95759.13
2023-01-01T06:16:05.296Z,95747.88
2023-01-01T06:18:36.200Z,95729.88
2023-01-01T06:21:10.337Z,95737.47
2023-01-01T06:23:38.157Z,95749.47
2023-01-01T06:26:07.577Z,95760.13
2023-01-01T06:28:35.015Z,95743.41
2023-01-01T06:31:02.602Z,95743.94
2023-01-01T06:33:30.775Z,95758.59
2023-01-01T06:35:58.491Z,95760.44
2023-01-01T06:38:27.275Z,95763.03
2023-01-01T06:40:58.502Z,95772.69
2023-01-01T06:43:26.065Z,95779.47
2023-01-01T06:46:04.065Z,95766.41
2023-01-01T06:48:33.403Z,95760.16
2023-01-01T06:51:06.880Z,95770.34
2023-01-01T06:53:36.212Z,95766.41
2023-01-01T06:56:04.120Z,95765.88
2023-01-01T06:58:32.204Z,95759.09
2023-01-01T07:01:08.623Z,95760.97
2023-01-01T07:03:36.891Z,95755.97
2023-01-01T07:06:04.884Z,95776.38
2023-01-01T07:08:32.343Z,95788.91
2023-01-01T07:11:01.377Z,95766.16
2023-01-01T07:13:30.567Z,95802.72
2023-01-01T07:15:58.348Z,95805.84
2023-01-01T07:18:26.466Z,95817.09
2023-01-01T07:20:55.614Z,95810.81
2023-01-01T07:23:23.582Z,95824.63
2023-01-01T07:25:52.483Z,95811.31
2023-01-01T07:28:22.333Z,95829.31
2023-01-01T07:30:50.035Z,95834.53
2023-01-01T07:33:19.950Z,95834.72
2023-01-01T07:35:47.942Z,95823.72
2023-01-01T07:38:16.062Z,95848.03
2023-01-01T07:40:43.651Z,95856.91
2023-01-01T07:43:12.525Z,95856.91
2023-01-01T07:45:41.692Z,95867.03
2023-01-01T07:48:14.642Z,95872.22
2023-01-01T07:50:42.709Z,95873.22
2023-01-01T07:53:10.616Z,95844.22
2023-01-01T07:55:38.347Z,95882.06
2023-01-01T07:58:05.817Z,95875.78
2023-01-01T08:00:33.281Z,95861.38
2023-01-01T08:03:02.165Z,95853.78
2023-01-01T08:05:29.861Z,95840.47
2023-01-01T08:07:57.375Z,95866.22
2023-01-01T08:10:24.833Z,95869.31
2023-01-01T08:12:52.283Z,95866.94
2023-01-01T08:15:19.713Z,95858.84
2023-01-01T08:17:47.565Z,95869.81
2023-01-01T08:20:16.496Z,95878.97
2023-01-01T08:22:44.126Z,95877.69
2023-01-01T08:25:11.599Z,95875.59
2023-01-01T08:27:39.101Z,95868.63
2023-01-01T08:30:07.665Z,95874.88
2023-01-01T08:32:35.119Z,95890.53
2023-01-01T08:35:02.593Z,95890.56
2023-01-01T08:37:31.422Z,95890.31
2023-01-01T08:39:58.861Z,95903.88
2023-01-01T08:42:26.383Z,95893.97
2023-01-01T08:44:53.793Z,95893.47
2023-01-01T08:47:23.364Z,95895.31
2023-01-01T08:49:51.266Z,95905.97
2023-01-01T08:52:19.550Z,95901.22
2023-01-01T08:54:48.465Z,95907.56
2023-01-01T08:57:16.143Z,95929.19
2023-01-01T08:59:43.611Z,95922.94
2023-01-01T09:02:12.422Z,95920.81
2023-01-01T09:04:40.016Z,95897.38
2023-01-01T09:07:07.506Z,95923.69
2023-01-01T09:09:34.993Z,95908.28
2023-01-01T09:12:06.375Z,95899.97
2023-01-01T09:14:34.993Z,95898.56
2023-01-01T09:17:03.273Z,95923.44
2023-01-01T09:19:30.844Z,95905.91
2023-01-01T09:21:58.763Z,95908.06
2023-01-01T09:24:26.208Z,95903.63
2023-01-01T09:26:53.652Z,95911.69
2023-01-01T09:29:22.485Z,95919.28
2023-01-01T09:31:50.131Z,95931.28
2023-01-01T09:34:17.992Z,95926.63
2023-01-01T09:36:46.469Z,95943.56
2023-01-01T09:39:16.558Z,95933.16
2023-01-01T09:42:02.388Z,95940.75
2023-01-01T09:44:53.258Z,95933.72
2023-01-01T09:47:28.130Z,95940.00
2023-01-01T09:50:00.745Z,95931.59
2023-01-01T09:52:38.362Z,95956.19
2023-01-01T09:55:16.605Z,95968.19
2023-01-01T09:57:44.016Z,95941.56
2023-01-01T10:00:17.849Z,95952.88
2023-01-01T10:02:59.445Z,95944.03
2023-01-01T10:05:34.786Z,95938.72
2023-01-01T10:08:07.535Z,95965.66
2023-01-01T10:10:40.238Z,95935.53
2023-01-01T10:13:21.319Z,95955.19
2023-01-01T10:15:57.550Z,95954.41
2023-01-01T10:18:29.797Z,95948.63
2023-01-01T10:21:03.666Z,95945.81
2023-01-01T10:23:36.341Z,95954.19
2023-01-01T10:26:12.475Z,95931.75
2023-01-01T10:28:47.991Z,95945.31
2023-01-01T10:31:18.976Z,95946.91
2023-01-01T10:33:47.781Z,95927.28
2023-01-01T10:36:18.210Z,95944.31
2023-01-01T10:38:46.464Z,95931.34
2023-01-01T10:41:19.588Z,95931.00
2023-01-01T10:43:49.216Z,95926.91
2023-01-01T10:46:29.400Z,95935.81
2023-01-01T10:49:11.965Z,95931.94
2023-01-01T10:51:44.558Z,95937.22
2023-01-01T10:54:33.035Z,95951.31
2023-01-01T10:57:00.808Z,95942.44
2023-01-01T10:59:37.804Z,95961.47
2023-01-01T11:02:22.144Z,95937.44
2023-01-01T11:04:51.095Z,95924.16
2023-01-01T11:07:25.814Z,95937.47
2023-01-01T11:10:03.063Z,95939.03
2023-01-01T11:15:31.115Z,95942.66
2023-01-01T11:18:06.758Z,95943.97
2023-01-01T11:20:34.961Z,95953.38
2023-01-01T11:23:19.737Z,95940.81
2023-01-01T11:25:58.897Z,95963.84
2023-01-01T11:28:27.000Z,95971.16
2023-01-01T11:31:14.055Z,95963.81
2023-01-01T11:33:48.657Z,95977.16
2023-01-01T11:36:23.643Z,95976.38
2023-01-01T11:39:04.738Z,95972.66
2023-01-01T11:41:43.146Z,95977.38
2023-01-01T11:44:13.356Z,95990.69
2023-01-01T11:46:41.060Z,95978.19
2023-01-01T11:49:16.037Z,95980.78
2023-01-01T11:51:43.944Z,95963.78
2023-01-01T11:54:23.898Z,95972.69
2023-01-01T11:56:55.107Z,95972.44
2023-01-01T11:59:28.475Z,95966.97
2023-01-01T12:01:59.767Z,95952.56
2023-01-01T12:04:32.536Z,95969.56
2023-01-01T12:07:05.786Z,95959.13
2023-01-01T12:09:39.417Z,95958.34
2023-01-01T12:12:10.790Z,95948.41
2023-01-01T12:14:43.640Z,95967.47
2023-01-01T12:17:18.850Z,95952.06
2023-01-01T12:19:57.822Z,95934.28
2023-01-01T12:22:25.609Z,95931.97
2023-01-01T12:24:54.621Z,95929.38
2023-01-01T12:27:36.959Z,95922.56
2023-01-01T12:30:16.325Z,95894.59
2023-01-01T12:33:17.607Z,95915.00
2023-01-01T12:36:01.994Z,95911.13
2023-01-01T12:38:45.571Z,95915.81
2023-01-01T12:41:19.312Z,95901.69
2023-01-01T12:43:56.647Z,95899.59
2023-01-01T12:46:38.260Z,95909.03
2023-01-01T12:49:21.791Z,95898.09
2023-01-01T12:52:03.412Z,95908.25
2023-01-01T12:54:58.905Z,95913.25
2023-01-01T12:57:32.829Z,95920.56
2023-01-01T13:00:02.684Z,95909.09
2023-01-01T13:02:34.824Z,95916.66
2023-01-01T13:05:05.401Z,95910.16
2023-01-01T13:07:39.565Z,95923.75
2023-01-01T13:10:13.569Z,95923.75
2023-01-01T13:12:41.520Z,95924.78
2023-01-01T13:15:48.359Z,95925.81
2023-01-01T13:18:31.874Z,95926.06
2023-01-01T13:21:06.326Z,95921.84
2023-01-01T13:23:47.180Z,95922.13
2023-01-01T13:26:40.261Z,95922.66
2023-01-01T13:29:44.831Z,95912.19
2023-01-01T13:32:14.540Z,95909.28
2023-01-01T13:34:59.353Z,95911.66
2023-01-01T13:37:45.792Z,95910.34
2023-01-01T13:40:53.200Z,95910.63
2023-01-01T13:43:28.096Z,95900.13
2023-01-01T13:46:13.623Z,95898.31
2023-01-01T13:49:01.748Z,95911.41
2023-01-01T13:52:05.818Z,95911.91
2023-01-01T13:54:52.833Z,95904.59
2023-01-01T13:57:44.987Z,95903.84
2023-01-01T14:00:22.191Z,95903.00
2023-01-01T14:02:58.761Z,95891.81
2023-01-01T14:05:30.847Z,95897.56
2023-01-01T14:07:58.583Z,95908.78
2023-01-01T14:10:29.282Z,95887.31
2023-01-01T14:13:03.759Z,95889.72
2023-01-01T14:15:34.440Z,95898.63
2023-01-01T14:18:05.297Z,95917.44
2023-01-01T14:20:37.267Z,95868.22
2023-01-01T14:23:10.020Z,95905.41
2023-01-01T14:25:37.747Z,95905.91
2023-01-01T14:28:05.631Z,95904.84
2023-01-01T14:30:34.544Z,95930.16
2023-01-01T14:33:03.594Z,95914.50
2023-01-01T14:35:31.117Z,95911.88
2023-01-01T14:37:58.676Z,95918.69
2023-01-01T14:40:29.141Z,95914.47
2023-01-01T14:43:00.923Z,95924.16
2023-01-01T14:45:29.858Z,95928.03
2023-01-01T14:47:59.007Z,95922.00
2023-01-01T14:50:31.587Z,95921.47
2023-01-01T14:53:04.766Z,95919.63
2023-01-01T14:55:35.677Z,95929.75
2023-01-01T14:58:03.679Z,95900.41
2023-01-01T15:00:33.799Z,95931.00
2023-01-01T15:03:14.458Z,95935.41
2023-01-01T15:05:43.702Z,95926.53
2023-01-01T15:08:20.174Z,95929.91
2023-01-01T15:10:48.341Z,95936.16
2023-01-01T15:13:20.120Z,95945.78
2023-01-01T15:15:50.266Z,95946.28
2023-01-01T15:18:39.525Z,95940.53
2023-01-01T15:21:12.953Z,95927.38
2023-01-01T15:23:44.830Z,95943.88
2023-01-01T15:26:24.970Z,95939.66
2023-01-01T15:28:52.439Z,95935.41
2023-01-01T15:31:19.911Z,95939.63
2023-01-01T15:33:49.696Z,95929.59
2023-01-01T15:36:25.254Z,95928.03
2023-01-01T15:38:53.531Z,95937.38
2023-01-01T15:41:25.984Z,95942.06
2023-01-01T15:44:07.065Z,95928.97
2023-01-01T15:46:35.052Z,95917.41
2023-01-01T15:49:03.889Z,95932.19
2023-01-01T15:51:31.755Z,95926.97
2023-01-01T15:54:01.781Z,95912.88
2023-01-01T15:56:31.736Z,95929.53
2023-01-01T15:59:08.704Z,95922.22
2023-01-01T16:01:39.433Z,95922.44
2023-01-01T16:04:11.836Z,95913.00
2023-01-01T16:06:44.309Z,95895.75
2023-01-01T16:09:13.329Z,95901.41
2023-01-01T16:11:40.817Z,95880.34
2023-01-01T16:14:08.498Z,95886.25
2023-01-01T16:16:36.120Z,95875.50
2023-01-01T16:19:03.585Z,95879.91
2023-01-01T16:21:33.888Z,95876.97
2023-01-01T16:24:01.861Z,95871.19
2023-01-01T16:26:29.265Z,95864.88
2023-01-01T16:28:56.716Z,95863.66
2023-01-01T16:31:28.410Z,95840.84
2023-01-01T16:33:58.607Z,95856.53
2023-01-01T16:36:28.990Z,95847.63
2023-01-01T16:38:58.191Z,95857.56
2023-01-01T16:41:28.542Z,95853.66
2023-01-01T16:43:56.074Z,95849.41
2023-01-01T16:46:23.779Z,95848.94
2023-01-01T16:48:51.390Z,95843.72
2023-01-01T16:51:21.619Z,95828.06
2023-01-01T16:53:49.329Z,95842.19
2023-01-01T16:56:19.344Z,95846.06
2023-01-01T16:58:49.483Z,95833.19
2023-01-01T17:01:19.278Z,95844.25
2023-01-01T17:03:47.178Z,95825.94
2023-01-01T17:06:15.092Z,95812.81
2023-01-01T17:08:43.036Z,95829.69
2023-01-01T17:11:14.040Z,95839.81
2023-01-01T17:13:43.462Z,95833.84
2023-01-01T17:16:11.869Z,95781.53
2023-01-01T17:19:13.355Z,95834.81
2023-01-01T17:21:27.817Z,95828.16
2023-01-01T17:23:55.597Z,95821.88
2023-01-01T17:26:25.616Z,95820.47
2023-01-01T17:29:00.304Z,95819.50
2023-01-01T17:31:28.984Z,95800.19
2023-01-01T17:33:57.023Z,95823.13
2023-01-01T17:36:26.967Z,95820.97
2023-01-01T17:38:54.556Z,95842.69
2023-01-01T17:41:22.361Z,95853.09
2023-01-01T17:43:51.685Z,95845.78
2023-01-01T17:46:25.532Z,95841.84
2023-01-01T17:48:53.672Z,95815.53
2023-01-01T17:51:22.376Z,95797.97
2023-01-01T17:53:50.023Z,95792.22
2023-01-01T17:56:22.095Z,95771.75
2023-01-01T17:58:54.168Z,95792.22
2023-01-01T18:01:31.054Z,95790.97
2023-01-01T18:04:00.814Z,95776.66
2023-01-01T18:06:28.932Z,95785.22
2023-01-01T18:08:56.996Z,95797.97
2023-01-01T18:11:25.343Z,95752.44
2023-01-01T18:13:52.821Z,95776.06
2023-01-01T18:16:20.604Z,95782.41
2023-01-01T18:18:55.904Z,95752.59
2023-01-01T18:21:26.029Z,95796.22
2023-01-01T18:23:55.799Z,95791.78
2023-01-01T18:26:24.758Z,95785.06
2023-01-01T18:28:53.181Z,95778.53
2023-01-01T18:31:21.416Z,95783.75
2023-01-01T18:33:53.361Z,95776.91
2023-01-01T18:36:24.184Z,95783.88
2023-01-01T18:38:58.429Z,95763.88
2023-01-01T18:41:40.418Z,95756.94
2023-01-01T18:44:18.434Z,95748.06
2023-01-01T18:46:46.780Z,95761.75
2023-01-01T18:49:15.732Z,95742.19
2023-01-01T18:51:48.112Z,95730.75
2023-01-01T18:54:15.722Z,95727.38
2023-01-01T18:56:43.497Z,95702.78
2023-01-01T18:59:21.367Z,95678.78
2023-01-01T19:01:51.827Z,95679.88
2023-01-01T19:04:21.120Z,95720.44
2023-01-01T19:06:48.696Z,95679.88
2023-01-01T19:09:21.808Z,95717.59
2023-01-01T19:11:50.243Z,95704.31
2023-01-01T19:14:20.331Z,95704.84
2023-01-01T19:16:49.710Z,95702.69
2023-01-01T19:19:19.943Z,95696.78
2023-01-01T19:21:52.032Z,95697.81
2023-01-01T19:24:22.850Z,95660.63
2023-01-01T19:26:54.151Z,95687.59
2023-01-01T19:29:23.432Z,95670.88
2023-01-01T19:31:52.619Z,95690.09
2023-01-01T19:34:21.323Z,95681.44
2023-01-01T19:36:50.709Z,95684.63
2023-01-01T19:39:18.591Z,95688.34
2023-01-01T19:41:46.927Z,95647.81
2023-01-01T19:44:24.965Z,95678.91
2023-01-01T19:46:53.103Z,95652.31
2023-01-01T19:49:20.611Z,95644.72
2023-01-01T19:51:48.203Z,95662.28
2023-01-01T19:54:17.221Z,95666.00
2023-01-01T19:56:44.791Z,95632.59
2023-01-01T19:59:12.356Z,95649.91
2023-01-01T20:01:40.113Z,95637.66
2023-01-01T20:04:08.046Z,95643.16
2023-01-01T20:06:36.318Z,95595.59
2023-01-01T20:09:04.618Z,95618.84
2023-01-01T20:11:33.533Z,95627.53
2023-01-01T20:14:01.115Z,95614.47
2023-01-01T20:16:28.833Z,95626.50
2023-01-01T20:18:56.406Z,95634.59
2023-01-01T20:21:44.735Z,95625.44
2023-01-01T20:24:12.276Z,95647.38
2023-01-01T20:26:41.159Z,95649.19
2023-01-01T20:29:20.951Z,95632.50
2023-01-01T20:31:50.558Z,95599.53
2023-01-01T20:34:18.141Z,95632.25
2023-01-01T20:37:03.418Z,95594.44
2023-01-01T20:39:31.221Z,95634.41
2023-01-01T20:42:00.090Z,95626.06
2023-01-01T20:44:27.931Z,95615.78
2023-01-01T20:46:55.601Z,95650.28
2023-01-01T20:49:23.510Z,95642.19
2023-01-01T20:51:53.403Z,95630.50
2023-01-01T20:54:21.455Z,95620.59
2023-01-01T20:56:49.351Z,95620.63
2023-01-01T20:59:34.944Z,95598.19
2023-01-01T21:02:03.255Z,95615.22
2023-01-01T21:04:30.889Z,95629.84
2023-01-01T21:06:58.339Z,95623.06
2023-01-01T21:09:25.798Z,95620.69
2023-01-01T21:11:53.311Z,95625.69
2023-01-01T21:14:24.857Z,95625.66
2023-01-01T21:16:52.783Z,95636.69
2023-01-01T21:19:26.322Z,95626.72
2023-01-01T21:21:56.102Z,95624.41
2023-01-01T21:24:27.049Z,95620.50
2023-01-01T21:26:56.857Z,95621.22
2023-01-01T21:29:26.932Z,95622.84
2023-01-01T21:32:05.395Z,95618.13
2023-01-01T21:34:40.240Z,95622.06
2023-01-01T21:37:14.487Z,95624.69
2023-01-01T21:39:43.032Z,95624.41
2023-01-01T21:42:23.540Z,95622.59
2023-01-01T21:44:57.173Z,95628.88
2023-01-01T21:47:25.778Z,95625.22
2023-01-01T21:49:55.842Z,95614.50
2023-01-01T21:52:25.585Z,95589.69
2023-01-01T21:54:53.167Z,95606.66
2023-01-01T21:57:23.001Z,95600.91
2023-01-01T21:59:51.799Z,95593.09
2023-01-01T22:02:32.776Z,95585.50
2023-01-01T22:05:03.065Z,95605.63
2023-01-01T22:10:24.969Z,95607.94
2023-01-01T22:12:56.705Z,95629.63
2023-01-01T22:15:40.021Z,95584.22
2023-01-01T22:18:22.564Z,95617.88
2023-01-01T22:20:50.297Z,95607.19
2023-01-01T22:23:32.673Z,95617.88
2023-01-01T22:26:00.140Z,95586.53
2023-01-01T22:28:31.357Z,95608.75
2023-01-01T22:31:00.519Z,95601.44
2023-01-01T22:33:37.047Z,95603.53
2023-01-01T22:36:13.724Z,95585.50
2023-01-01T22:38:41.820Z,95590.19
2023-01-01T22:41:09.605Z,95597.25
2023-01-01T22:43:39.472Z,95601.16
2023-01-01T22:46:15.714Z,95600.13
2023-01-01T22:48:44.998Z,95602.19
2023-01-01T22:51:18.202Z,95603.25
2023-01-01T22:53:45.873Z,95594.13
2023-01-01T22:56:13.559Z,95571.44
2023-01-01T22:58:41.092Z,95600.91
2023-01-01T23:01:08.668Z,95589.44
2023-01-01T23:03:36.202Z,95610.31
2023-01-01T23:06:05.341Z,95601.94
2023-01-01T23:08:32.822Z,95606.94
2023-01-01T23:11:02.384Z,95605.03
2023-01-01T23:13:47.758Z,95614.47
2023-01-01T23:16:15.232Z,95599.56
2023-01-01T23:18:43.549Z,95588.63
2023-01-01T23:21:15.927Z,95599.34
2023-01-01T23:23:45.050Z,95597.25
2023-01-01T23:26:13.086Z,95587.31
2023-01-01T23:28:40.642Z,95601.94
2023-01-01T23:31:12.211Z,95596.47
2023-01-01T23:33:40.172Z,95597.75
2023-01-01T23:36:09.395Z,95599.06
2023-01-01T23:38:39.741Z,95583.97
2023-01-01T23:41:07.220Z,95568.53
2023-01-01T23:43:39.396Z,95574.28
2023-01-01T23:46:10.792Z,95571.16
2023-01-01T23:48:38.294Z,95573.53
2023-01-01T23:51:06.161Z,95583.69
2023-01-01T23:53:33.620Z,95576.38
2023-01-01T23:56:02.565Z,95572.69
2023-01-01T23:58:30.098Z,95586.00
